E R G E B N I S L I S T E  / R E S U L T A T S
25. Weinstraßenlauf über 10.8 km - Schweigen->Bad Bergzabern - 28. August 2016
Platz Name Verein Nat. JG Zeit Klas. Rang Stnr.
Place Nom Club Année Temps Caté. Dossard
1 Hilpert Patrick LG Region Karlsruhe 1983 0:37:44 M30 1 575
2 Weldegebriel Yosief TSG Wiesloch 1979 0:38:07 M35 1 844
3 Ullrich Johannes TV Bad Bergzabern 1998 0:38:09 MJU20 1 618
4 Tränkle Melina LG Region Karlsruhe 1992 0:39:14 WHK 1 806
5 Weber Tim SV Oberkollbach 1985 0:39:53 M30 2 849
6 Klein Joshua LG Region Karlsruhe 1997 0:40:12 MJU20 2 822
7 Diemer Peter TV Memmingen 1973 0:40:27 M40 1 653
8 Hirtz Vincent CMC FRA 1973 0:40:51 M40 2 662
9 Guittet Denis ANA SG Wantzenau FRA 1969 0:40:54 M45 1 502
10 Ullrich Philipp TV Bad Bergzabern 1993 0:42:04 MHK 1 617
11 Mürb Bernd TV Rheinau 1962 0:42:10 M50 1 566
12 Wagner Matthias Laufteam Pirmasens 1977 0:42:50 M35 2 838
13 Jeltsch Gilles ColmarMC-Jeltsch architectur FRA 1964 0:43:34 M50 2 721
14 Morgenstern Kai TSV Kandel 1973 0:44:13 M40 3 842
15 Voigt Patrick TSV Kandel 1986 0:45:24 M30 3 735
16 Kirschey Michael TGS Niederrodenbach 1959 0:45:47 M55 1 512
17 Dambach Thomas TSV Kandel 1961 0:45:57 M55 2 843
18 Hagel Julian Karlsruhe 1988 0:46:03 MHK 2 609
19 Frankfurter Horst AH Bobenthal 1969 0:46:12 M45 2 739
20 Le Fustec Emmanuel Cleebourg FRA 1977 0:46:22 M35 3 668
21 Scheydt Christian Oberotterbach 1993 0:46:33 MHK 3 793
22 Wieg Frank TV Bad Bergzabern 1974 0:46:35 M40 4 696
23 Sternkopf Stefan Worcester AC 1966 0:47:19 M50 3 600
24 Stephan Jean-Michel La Saline FRA 1979 0:47:23 M35 4 723
25 Zänker Hans-Gerd TV Bad Bergzabern 1960 0:47:27 M55 3 551
26 Schreieck Martin LCO Edenkoben 1956 0:47:37 M60 1 640
27 Lindner Loris Schweigen-Rechtenbach 1999 0:47:59 MJU20 3 555
28 Ditter Lukas Karlsruhe 1997 0:48:08 MJU20 4 829
29 Fätsch Sandra Eichi's Laufladen/Team Erd 1973 0:48:11 W40 1 574
30 Kronenwett Stefan HSG Lauingen-Wittislingen 1986 0:48:25 M30 4 748
31 Weiss Stephane NAVECO Betschdorf FRA 1974 0:48:29 M40 5 678
32 Weisse Henri ANA RAC Wissembourg FRA 1955 0:48:30 M60 2 833
33 Wipfler Claudia Tri-Team SSV Ettlingen 1989 0:48:31 WHK 2 613
34 Heid Markus TV Bad Bergzabern 1978 0:48:36 M35 5 652
35 Werling Julian Bad Bergzabern 1996 0:48:38 MHK 4 798
36 Simon Roland Weingarten 1961 0:48:42 M55 4 509
37 Ketterer Viktor Karlsruhe 1965 0:49:10 M50 4 821
38 Ketterer Leonhard LG Region Karlsruhe 1998 0:49:10 MJU20 5 840
39 Schäfges Matthias Frankfurt 1985 0:49:17 M30 5 634
40 Ullrich Susanne TV Bad Bergzabern 1968 0:49:28 W45 1 790
41 Fabre-Wagner Linda Passeport Gourmand FRA 1973 0:49:42 W40 2 712
42 Becker Alexander TV Bad Bergzabern 1996 0:49:46 MHK 5 803
43 Albenesius Regis Coureurs du Hattgau FRA 1979 0:49:48 M35 6 670
44 Hahn Rachel OH Morsbronn FRA 1978 0:49:49 W35 1 664
45 Meyer Fabien OH Morsbronn FRA 1969 0:49:58 M45 3 836
46 Burck Sebastien Schleithal FRA 1977 0:49:59 M35 7 776
47 Lüerßen Frank Neustadt 1965 0:50:00 M50 5 689
48 Sossalla Adam Bauch-Beweger Zweibrücken 1972 0:50:08 M40 6 728
49 Friedrich Alexander Pleisweiler 1993 0:50:44 MHK 6 619
50 Kaltenbach Markus Raumgeschichten 1986 0:50:51 M30 6 610
51 Bantz Hans TUS Schaidt 1956 0:51:01 M60 3 607
52 Cuntz Karl-Heinz LG Kapellen-Drusweiler 1955 0:51:02 M60 4 688
53 Zepp Christoph TV Bad Bergzabern 1979 0:51:11 M35 8 599
54 Pibre Thomas Tennis Club Wissembourg FRA 1989 0:51:18 MHK 7 758
55 Müller Udo LG Klingenmünster 1965 0:51:30 M50 6 699
56 Gröbel Michael Kömmerling Laufgruppe 1972 0:51:32 M40 7 695
57 Wagner Jerome Kandel 1986 0:51:36 M30 7 630
58 Falk Florian Landau Running Company 1986 0:51:37 M30 8 573
59 Zschaubitz Gerhard TV Bad Bergzabern 1961 0:51:38 M55 5 554
60 Mene Jean-Michel Haguenau FRA 1957 0:51:57 M55 6 719
61 Ulshöfer Alfred TV Nöttingen 1957 0:52:02 M55 7 705
62 Schimpf Reinhold Schweighofen 1964 0:52:50 M50 7 711
63 Masser Michael LG Rülzheim 1968 0:52:53 M45 4 639
64 Ashford Anthony Bonbon CZ 1954 0:53:02 M60 5 510
65 Llinares Francois OH Morsbronn FRA 1980 0:53:16 M35 9 713
66 Schneider Jörg Ettlingen 1970 0:53:20 M45 5 614
67 Kuszyk Paul Team Erdinger Alkoholfrei 1961 0:53:26 M55 8 595
68 Schimpf Werner TV Bad Bergzabern 1946 0:53:27 M70 1 544
69 Bischoff Dirk LSG Karlsruhe 1968 0:53:35 M45 6 730
70 Kuntz Jerome SSV Offenbach 1992 0:53:36 MHK 8 778
71 Renner Frank LC Haßloch 1974 0:53:40 M40 8 580
72 Getto Albert Oberotterbach 1956 0:53:42 M60 6 850
73 Steck Jean-Luc Biblisheim FRA 1965 0:53:52 M50 8 754
74 Zepp Stephan TV Bad Bergzabern 1978 0:53:56 M35 10 686
75 Toro Wanda LT Rheinhessen-Pfalz 1962 0:53:59 W50 1 824
76 Usselmann Richard Bischwiller FRA 1957 0:54:00 M55 9 773
77 König Andreas Team Erdinger Alkoholfrei 1966 0:54:05 M50 9 601
78 Roth Mario RW Göcklingen 1968 0:54:18 M45 7 853
79 Schultz Dirk Landau 1986 0:54:20 M30 9 631
80 Vogel Nikolaus TV Nöttingen 1961 0:54:27 M55 10 656
81 Kurz Fabio TV Bad Bergzabern 1996 0:54:33 MHK 9 802
82 Hoffmann Thomas TV Bad Bergzabern 1958 0:54:34 M55 11 523
83 Bahler Daniel Theo Nils Lea-Stern 1981 0:54:46 M35 11 809
84 Mielle Alain Strasbourg FRA 1969 0:54:48 M45 8 671
85 Frey Jean-Louis CAP Liberte Dettwiller FRA 1958 0:54:49 M55 12 784
86 Wißmeier Patrick Bad Bergzabern 1993 0:54:51 MHK 10 813
87 Boulou Jean-Claude Altenstadt FRA 1959 0:54:56 M55 13 814
88 Leidner Maik TUS Knittelsheim 1976 0:55:00 M40 9 741
89 Gaukel Florian TUS Schaidt 1990 0:55:02 MHK 11 608
90 Maier Günter FC Berwangen 1953 0:55:07 M60 7 847
91 Imhoff Andreas TV Bad Bergzabern 1959 0:55:12 M55 14 533
92 Brödel Joachim TV Bad Bergzabern 1960 0:55:14 M55 15 540
93 Heroguel Ingrid Rastatt 1985 0:55:16 W30 1 501
94 Wegmann Elisabeth TV Bad Bergzabern 1962 0:55:17 W50 2 528
95 Oster Hugues . 1974 0:55:18 M40 10 828
96 Flörchinger Herbert TV Rheinzabern 1951 0:55:25 M65 1 708
97 Brossart Elvira TV Bad Bergzabern 1961 0:55:36 W55 1 524
98 Schäffer Dennis SV Schweigen-Rechtenbach 1993 0:55:54 MHK 12 746
99 Kuntz Samira LT Rheinhessen-Pfalz 1989 0:56:08 WHK 3 779
100 Röper Michael LC Bad Dürkheim 1951 0:56:19 M65 2 737
101 Roux Olivier Surbourg FRA 1974 0:56:25 M40 11 674
102 Matejcek Martin Karlsruher Lemminge 1985 0:56:37 M30 10 647
103 Theilemann Dr. Ludwig SFG Serres 1950 0:56:46 M65 3 752
104 Landes Ulrich LG Hohenkammer 1961 0:56:53 M55 16 764
105 Mayer Michael Büchelberg-Team 1967 0:56:57 M45 9 605
106 Wolff Bernhard LG Rülzheim 1962 0:56:58 M50 10 563
107 Wollenweber Elizabeth TSV Annweiler 1970 0:57:15 W45 2 825
108 Boudgoust Andreé Niederlauterbach FRA 1959 0:57:18 W55 2 788
109 Hege Sylvain Wissembourg FRA 1966 0:57:29 M50 11 661
110 Geller Robert TV Eutingen 1963 0:57:30 M50 12 777
111 Gast Gerhard Schweighofen 1958 0:57:34 M55 17 562
112 Plainer Alfred Kaiserslautern 1949 0:57:35 M65 4 643
113 Stephan Jutta Sandhasen Schweighofen 1969 0:57:37 W45 3 577
114 Oster Werner Sandhasen Schweighofen 1966 0:57:38 M50 13 585
115 Schweitzer Pascal Woerth FRA 1972 0:57:48 M40 12 666
116 Wagner Damien NAVECO Betschdorf FRA 1967 0:57:53 M45 10 665
117 Becker Markus SGT 1967 0:57:57 M45 11 832
118 Siebert Fridtjof Karlsruhe 1971 0:58:16 M45 12 750
119 Hänling Petra Oberotterbach 1988 0:58:38 WHK 4 683
120 Bitter Stefan LG Wittgenstein 1963 0:58:40 M50 14 521
121 Tremmel Uwe Mannheim 1967 0:58:46 M45 13 568
122 Hoffmann Birgit TV Bad Bergzabern 1961 0:58:49 W55 3 556
123 Merkel Oliver Dörrenbach 1977 0:58:52 M35 12 589
124 Fedorov Alexander Bad Schönborn 1966 0:58:54 M50 15 637
125 Rohe Nathalie ANA RAC Wissembourg FRA 1965 0:58:55 W50 3 820
126 Rittershofer Claudine ANA RAC Wissembourg FRA 1971 0:58:56 W45 4 756
127 Bayer Jean-Georges ANA RAC Wissembourg FRA 1963 0:58:56 M50 16 827
128 Gruber Markus ANA RAC Wissembourg 1971 0:58:57 M45 14 729
129 Schopp Bernard ANA RAC Wissembourg FRA 1953 0:58:57 M60 8 660
130 Laqua Gerhard Christian Hagenbach 1969 0:59:00 M45 15 543
131 Heimlich Rémi Altenstadt FRA 1960 0:59:01 M55 18 780
132 Pätzold Stefan Niederotterbach 1972 0:59:02 M40 13 517
133 Braun Alwin Büchelberg-Team 1961 0:59:04 M55 19 606
134 Burckhart Peter Pfälzer Flitzer 1964 0:59:05 M50 17 782
135 von Hackewitz Michael Radfreunde Südpfalz 1968 0:59:10 M45 16 771
136 Auxel Bärbel Pforzheim 1959 0:59:13 W55 4 584
137 Mayer Dieter TV Hinterweidenthal 1965 0:59:21 M50 18 839
138 Cuntz Stefan SV Oberotterbach 1975 0:59:28 M40 14 835
139 Anders Peter LSG Karlsruhe 1947 0:59:38 M65 5 560
140 Geddert Benjamin Kapellen-Drusweiler 1993 0:59:39 MHK 13 807
141 Frey Sabine CAP Liberte Dettwiller FRA 1963 0:59:42 W50 4 783
142 Göhring Tina TV Bad Bergzabern 1983 0:59:44 W30 2 567
143 Mijatovic Roberta ASG TRIA Hockenheim 1974 0:59:45 W40 3 799
144 Schäfer Christian Klingenmünster 1971 0:59:46 M45 17 538
145 Scheuer Eric LG Langsur 1965 0:59:47 M50 19 796
146 Neise Andre FC Astoria Walldorf 1968 1:00:10 M45 18 537
147 Neise Oliver Walldorf 1997 1:00:12 MJU20 6 823
148 Langlotz Simon Karlsruhe 1996 1:00:15 MHK 14 733
149 Jourdan Achim TV Kieselbronn 1960 1:00:19 M55 20 571
150 Eichenlaub Lisa Altenstadt FRA 1997 1:00:29 WJU20 1 759
151 Bühler Yves ANA Lauterbourg FRA 1964 1:00:35 M50 20 837
152 Beiko Ahmad Polizeisportverein 1962 1:00:42 M50 21 738
153 Heilig Andreas Ettlingen-Spessart 1970 1:00:44 M45 19 701
154 Skalnik Roman Ludwigshafen 1971 1:00:55 M45 20 529
155 Doll Helmut Kneipp Verein Bruchsal 1955 1:01:03 M60 9 625
156 Weber Philippe Les furieux FRA 1972 1:01:14 M40 15 623
157 Schallwig Sandrine Les furieux FRA 1972 1:01:15 W40 4 624
158 Goerst Remy Les furieux FRA 1970 1:01:15 M45 21 635
159 Reinwalt Andre Association Diab`aide FRA 1956 1:01:50 M60 10 757
160 Klein Sarah KIT SC 1992 1:02:00 WHK 5 811
161 König Alex Lauf Team Felsenland 1969 1:02:14 M45 22 734
162 Wetzel Thomas Klingbachrunners 1963 1:02:14 M50 22 654
163 Rosenthal Andrea Göcklingen 1961 1:02:16 W55 5 794
164 Luces Andrea Schiltigheim FRA 1967 1:02:20 W45 5 692
165 Schredelseker Christel TG Winkel 1950 1:02:33 W65 1 579
166 Glauber Wilfried Leimersheim 1953 1:02:43 M60 11 545
167 Schmidt Klaus TV Rheinzabern 1960 1:03:02 M55 21 781
168 Weimer Ruth TSG Wiesloch 1952 1:03:09 W60 1 841
169 Lippold Horst Köln 1957 1:03:10 M55 22 815
170 Jilg Hans Pfälzer Flitzer 1958 1:03:27 M55 23 651
171 Wagenbrenner Ole Steinfeld 2002 1:03:36 MJU20 7 845
172 Laqua Jane Mwihaki Hagenbach 1980 1:03:47 W35 2 542
173 Seib Peter TV St.Ilgen 1951 1:03:56 M65 6 525
174 Nicklis Eckhard Böchingen 1963 1:03:59 M50 23 710
175 Fischer Markus Bio Runner Rhein-Main 1967 1:04:00 M45 23 685
176 Frey Manuel Oberhoffen les Wissembourg FRA 1991 1:04:05 MHK 15 747
177 Steinmetz Marie-Paule RT Schweighouse FRA 1955 1:04:06 W60 2 676
178 Sandmaier Helga LAC Insheim 1958 1:04:08 W55 6 587
179 Schmidt Ralf Haßloch 1960 1:04:09 M55 24 588
180 Zirnhelt Denis Team Voisins FRA 1976 1:04:13 M40 16 679
181 Burrer Rudi SFG Serres 1955 1:04:19 M60 12 693
182 Jung Dietmar Freies Tibet 1962 1:04:21 M50 24 751
183 Stürzenberger Jürgen Pirmasens 1965 1:04:26 M50 25 518
184 Meyer Claire OH Morsbronn FRA 1986 1:04:34 W30 3 720
185 Seibel Gerhard LG Allahopp 1959 1:04:45 M55 25 767
186 Metz Joachim Klingbachrunners 1961 1:04:52 M55 26 655
187 Rehm Michael TV Bad Bergzabern 1968 1:05:00 M45 24 810
188 Wenner Antoine ANA RAC Wissembourg FRA 1957 1:05:01 M55 27 659
189 Pleschke Peter LG Kapellen-Drusweiler 1951 1:05:02 M65 7 744
190 Benamara Karim Bad Bergzabern 1982 1:05:11 M30 11 732
191 Pibre Jacky Wissembourg FRA 1958 1:05:14 M55 28 753
192 Grupp Dagmar RSV Edelweiß Oberhausen 1971 1:05:16 W45 6 658
193 Toepfer Walter SFG Serres 1947 1:05:17 M65 8 819
194 Hetzler Florian TV Bad Bergzabern 1993 1:05:18 MHK 16 534
195 Cuntz Edith LG Kapellen-Drusweiler 1955 1:05:23 W60 3 687
196 Cuntz Elena Raumgeschichten 1988 1:05:23 WHK 6 612
197 Ellermann Veronika Sandhausen 1986 1:05:25 W30 4 541
198 Wein Norbert LSG Karlsruhe 1952 1:05:33 M60 13 638
199 Metz Bernhard TV Bad Bergzabern 1961 1:05:42 M55 29 532
200 Giessenhoffer Eric Mutzig FRA 1967 1:05:45 M45 25 714
201 Palermiti Benjamin Schiltigheim FRA 1970 1:05:51 M45 26 706
202 Lang Florian Albersweiler 1988 1:05:57 MHK 17 553
203 Ulshöfer Sylvia TV Nöttingen 1962 1:05:58 W50 5 704
204 Schlensog Thomas Kömmerling Laufgruppe 1963 1:06:03 M50 26 561
205 Heilmann Ralf Kandel 1964 1:06:17 M50 27 645
206 Ignor Daniel Insheim 1983 1:06:19 M30 12 552
207 Zimmer Thomas Bottrop 1983 1:06:20 M30 13 615
208 Bollinger Mandy Pfalzklinikum 1991 1:06:26 WHK 7 816
209 Landherr Markus Pfalzklinikum 1962 1:06:27 M50 28 817
210 Weber Harald Landau 1953 1:06:34 M60 14 592
211 Ehret Werner TSV Annweiler 1949 1:06:36 M65 9 785
212 Ihde Katja Bad Bergzabern 1970 1:06:47 W45 7 848
213 Reinders Rolf Bad Bergzabern 1969 1:06:57 M45 27 622
214 Knöller Herbert Bellavitalis 1969 1:06:59 M45 28 786
215 Kuntz Matthias TV Bad Bergzabern 1966 1:07:09 M50 29 526
216 Marangos Anna Gertwiller FRA 1962 1:07:12 W50 6 718
217 Emich Xenia Bad Bergzabern 1988 1:07:14 WHK 8 791
218 Bentz Hans-Jürgen LT Rheinhessen-Pfalz 1946 1:07:20 M70 2 736
219 Moser Joachim TV Bad Bergzabern 1970 1:07:38 M45 29 531
220 Sternjacob Christoph Karlsruhe 1984 1:07:39 M30 14 831
221 Gripp Andreas Stuttgart 1965 1:07:47 M50 30 520
222 Jochim Maria TV Herxheim 1945 1:07:56 W70 1 596
223 Heilmann Karsten Landau 1968 1:07:58 M45 30 830
224 Bertsch Dieter LG Hardt 1938 1:07:59 M75 1 707
225 Weget Cedric Boxclub Kandel 2002 1:08:05 MJU20 8 800
226 Weget Tatjana Boxclub Kandel 1973 1:08:06 W40 5 801
227 Wagner Serge Trimbach FRA 1964 1:08:13 M50 31 762
228 Wagner Claudine Trimbach FRA 1969 1:08:14 W45 8 763
229 Hick Andrea RC Vorwärts Speyer 1964 1:08:24 W50 7 765
230 Medart Tanja Steinfeld 1971 1:08:27 W45 9 690
231 Medart Markus Steinfeld 1970 1:08:28 M45 31 691
232 Noack Frank RC Vorwärts Speyer 1965 1:08:29 M50 32 766
233 Anders Anna SVK Beiertheim 1947 1:08:35 W65 2 559
234 Hauck Carsten SV Oberotterbach 1975 1:08:41 M40 17 834
235 Kerscher Thomas Ludwigshafen Runners 1957 1:08:42 M55 30 745
236 Becker Sabine Karlsruhe 1966 1:08:45 W50 8 646
237 Haltmayer Andrea Kapsweyer 1981 1:08:50 W35 3 657
238 Moraru Bogdan Oberotterbach 1975 1:09:17 M40 18 626
239 Leist Gerhard TSG Wiesloch 1954 1:09:18 M60 15 846
240 Noack Anna Raumgeschichten 1986 1:09:30 W30 5 611
241 Behr Oskar VLG Maximiliansau 1949 1:09:36 M65 10 760
242 Weilacher Franz-Heinrich Hatzenbühl 1962 1:10:00 M50 33 797
243 Ernst Karl Schwanheim 1952 1:10:19 M60 16 650
244 Wander Jürgen Heart Racer Team 1962 1:10:20 M50 34 627
245 Nauerth Doris TV Hatzenbühl 1967 1:10:24 W45 10 749
246 Braun Gertrud TV Bad Bergzabern 1957 1:10:43 W55 7 578
247 Rietsch Josiane RT Schweighouse FRA 1952 1:11:05 W60 4 663
248 Krieger Ursula DHU Karlsruhe 1955 1:11:08 W60 5 570
249 Kuzmanovic Zeljko Speyer 1987 1:11:16 MHK 18 805
250 Drumm Karl Ludwig MiRO LT 1940 1:11:40 M75 2 789
251 Scheib Christin Schweigen-Rechtenbach 1995 1:11:48 WHK 9 812
252 Fuchsjäger Max SV Schweigen-R./Oberotterb. 2004 1:12:15 MJU20 9 694
253 Klein Andreas SV Schweigen-R./Oberotterb. 1986 1:12:16 M30 15 508
254 Bauer Eva Maria Ettenheim 1966 1:12:39 W50 9 702
255 Riek Günter Rheinzabern 1958 1:12:40 M55 31 703
256 Flörchinger Uschi TV Rheinzabern 1951 1:12:54 W65 3 709
257 Pfirrmann Rolf VLG Maximiliansau 1959 1:13:05 M55 32 804
258 Dräger Dirk SG Stern Rastatt 1968 1:14:00 M45 32 644
259 Fritschmann Diane Team Voisins FRA 1989 1:14:14 WHK 10 682
260 Zänker Andrea TV Bad Bergzabern 1960 1:14:17 W55 8 550
261 Miksch Maria LAC Insheim 1962 1:14:42 W50 10 586
262 Hauck Lisa Bad Bergzabern 1989 1:14:55 WHK 11 731
263 Wichmann Martina Stuttgart 1967 1:15:23 W45 11 519
264 Dackermann Vera Landau Running Company 1990 1:15:39 WHK 12 572
265 Busch Hans-Lothar Baden-Baden 1956 1:16:06 M60 17 808
266 Jochim Klaus TV Herxheim 1938 1:16:46 M75 3 597
267 Plies Gabi Labor Koblenz 1956 1:16:49 W60 6 581
268 Krämer Alexandra RC Vorwärts Speyer 1969 1:16:58 W45 12 514
269 Körnicke Regina TV Eutingen 1965 1:17:03 W50 11 775
270 Kurtz Gernot IGL Reutlingen 1945 1:17:49 M70 3 628
271 Drieß Andreas Birkenhördt 1970 1:18:09 M45 33 795
272 Wagner Brigitte TV Hinterweidenthal 1954 1:18:20 W60 7 698
273 Legler Janett TV Bad Bergzabern 2001 1:18:34 WJU20 2 642
274 Löhlau Ronja TV Bad Bergzabern 1996 1:18:34 WHK 13 641
275 Semmelsberger Annette Landau 1969 1:19:33 W45 13 511
276 Nerding-Schütz Stefanie TV Bad Bergzabern 1980 1:20:28 W35 4 768
277 Preger Barbara SG Stern Gaggenau 1975 1:20:40 W40 6 590
278 Schweigel Stefan SV Ottenau 1973 1:20:41 M40 19 591
279 Höppner Silke Kapsweyer 1971 1:20:48 W45 14 620
280 Heußmann Ines Gotha 1963 1:21:07 W50 12 818
281 Sander Giovanni Schweigen 1941 1:21:09 M75 4 684
282 Wünstel-Schiefer Ruth TV Bad Bergzabern 1958 1:21:35 W55 9 535
283 Steinmann Thilo Schweigen-Rechtenbach 1965 1:21:51 M50 35 530
284 Brunner Bernhard München 1952 1:22:25 M60 18 743
285 Brauer Ernst TV Bad Bergzabern 1952 1:22:59 M60 19 507
286 Wiedemann Albert . 1959 1:23:00 M55 33 774
287 Adam Thomas . 1967 1:24:13 M45 34 792
288 Lauth Gérard ADOT FRA 1937 1:24:24 M75 5 772
289 Kiefer Inge LT Ettlingen 1945 1:25:06 W70 2 569
290 De Robertis Marco Klingenmünster 1969 1:26:29 M45 35 787
291 Biehn-Keipp Ulrike TV Bad Bergzabern 1962 1:26:51 W50 13 539
292 Held Oskar LT Rheinhessen-Pfalz 1947 1:27:33 M65 11 598
293 Weinz Elke Durmersheim 1950 1:32:39 W65 4 770
294 Wiedemann Jürgen SSC Karlsruhe 1944 1:32:57 M70 4 826
295 Förster Heidi Karlsruhe 1957 1:40:13 W55 10 769
296 Ditz Ines Rechtenbach 2001 1:40:14 WJU20 3 852
297 Hinkel Friedrich TV Lemberg 1940 1:40:32 M75 6 582
298 Bayer Marie-Louise TV Bad Bergzabern 1946 1:43:05 W70 3 548
299 Fischer Bärbel TV Bad Bergzabern 1955 1:43:18 W60 8 549